createdAt,value
2018-09-29T09:31:07.403Z,15.72
2018-09-29T09:34:01.608Z,15.48
2018-09-29T09:36:53.078Z,15.20
2018-09-29T09:39:47.449Z,14.68
2018-09-29T09:42:41.311Z,14.45
2018-09-29T09:45:35.042Z,14.70
2018-09-29T09:48:28.532Z,13.62
2018-09-29T09:51:42.903Z,13.95
2018-09-29T09:54:36.241Z,13.15
2018-09-29T09:57:30.831Z,13.50
2018-09-29T10:00:45.147Z,12.75
2018-09-29T10:03:39.118Z,12.70
2018-09-29T10:06:38.181Z,12.75
2018-09-29T10:09:39.725Z,12.33
2018-09-29T10:12:34.477Z,11.97
2018-09-29T10:15:26.970Z,11.85
2018-09-29T10:18:22.221Z,12.07
2018-09-29T10:21:16.513Z,11.30
2018-09-29T10:24:11.886Z,11.75
2018-09-29T10:27:14.611Z,11.50
2018-09-29T10:30:09.583Z,11.40
2018-09-29T10:33:04.751Z,11.10
2018-09-29T10:36:12.543Z,10.72
2018-09-29T10:42:40.712Z,12.00
2018-09-29T10:45:36.730Z,11.57
2018-09-29T10:48:34.904Z,13.08
2018-09-29T10:51:29.785Z,12.68
2018-09-29T10:54:25.159Z,12.25
2018-09-29T10:57:22.507Z,11.30
2018-09-29T11:00:16.211Z,11.75
2018-09-29T11:03:09.452Z,11.43
2018-09-29T11:06:01.949Z,10.65
2018-09-29T11:08:57.231Z,11.38
2018-09-29T11:11:48.896Z,11.33
2018-09-29T11:17:58.825Z,11.25
2018-09-29T11:20:50.943Z,11.10
2018-09-29T11:23:43.175Z,11.28
2018-09-29T11:26:36.783Z,10.93
2018-09-29T11:29:30.881Z,11.30
2018-09-29T11:32:27.981Z,11.03
2018-09-29T11:35:22.448Z,11.08
2018-09-29T11:38:14.502Z,11.45
2018-09-29T11:41:07.554Z,11.25
2018-09-29T11:47:38.390Z,12.37
2018-09-29T11:50:34.480Z,12.35
2018-09-29T11:53:29.125Z,12.60
2018-09-29T11:56:20.345Z,12.00
2018-09-29T11:59:12.283Z,12.65
2018-09-29T12:02:05.229Z,12.90
2018-09-29T12:04:57.511Z,13.03
2018-09-29T12:07:51.054Z,12.53
2018-09-29T12:10:43.949Z,12.82
2018-09-29T12:13:36.140Z,13.35
2018-09-29T12:16:28.209Z,13.28
2018-09-29T12:19:20.924Z,13.62
2018-09-29T12:22:13.488Z,13.05
2018-09-29T12:25:10.716Z,12.93
2018-09-29T12:28:05.598Z,13.75
2018-09-29T12:30:56.918Z,13.50
2018-09-29T12:33:51.273Z,13.40
2018-09-29T12:36:44.724Z,13.13
2018-09-29T12:39:38.358Z,13.55
2018-09-29T12:42:32.243Z,12.98
2018-09-29T12:45:25.955Z,13.15
2018-09-29T12:48:17.038Z,11.93
2018-09-29T12:51:10.508Z,11.65
2018-09-29T12:54:03.090Z,11.40
2018-09-29T12:56:55.760Z,11.63
2018-09-29T12:59:47.801Z,11.57
2018-09-29T13:02:39.587Z,11.65
2018-09-29T13:05:35.261Z,11.88
2018-09-29T13:08:27.281Z,11.85
2018-09-29T13:11:19.976Z,11.75
2018-09-29T13:14:12.674Z,11.75
2018-09-29T13:17:11.131Z,12.10
2018-09-29T13:20:08.033Z,11.18
2018-09-29T13:23:09.784Z,11.75
2018-09-29T13:26:01.825Z,12.00
2018-09-29T13:28:53.284Z,12.13
2018-09-29T13:31:45.884Z,11.90
2018-09-29T13:34:37.355Z,11.88
2018-09-29T13:37:28.929Z,11.28
2018-09-29T13:40:19.846Z,12.03
2018-09-29T13:43:10.648Z,11.73
2018-09-29T13:46:02.905Z,11.88
2018-09-29T13:49:09.958Z,11.70
2018-09-29T13:52:00.284Z,12.10
2018-09-29T13:54:52.563Z,11.75
2018-09-29T13:57:46.178Z,12.43
2018-09-29T14:00:41.365Z,12.60
2018-09-29T14:03:34.431Z,11.95
2018-09-29T14:06:26.773Z,12.55
2018-09-29T14:09:19.694Z,12.30
2018-09-29T14:12:15.718Z,12.23
2018-09-29T14:15:42.706Z,12.53
2018-09-29T14:18:34.125Z,12.47
2018-09-29T14:21:27.782Z,12.50
2018-09-29T14:24:19.136Z,12.85
2018-09-29T14:27:27.226Z,12.63
2018-09-29T14:30:18.532Z,13.08
2018-09-29T14:33:11.054Z,13.85
2018-09-29T14:36:03.326Z,12.58
2018-09-29T14:38:54.708Z,12.93
2018-09-29T14:41:45.805Z,13.05
2018-09-29T14:44:38.831Z,12.75
2018-09-29T14:47:29.694Z,12.98
2018-09-29T14:50:21.008Z,12.53
2018-09-29T14:53:13.470Z,13.30
2018-09-29T14:56:04.955Z,12.95
2018-09-29T14:58:56.596Z,12.28
2018-09-29T15:01:47.492Z,13.30
2018-09-29T15:04:38.529Z,13.08
2018-09-29T15:07:30.016Z,12.93
2018-09-29T15:10:23.130Z,13.40
2018-09-29T15:13:16.490Z,13.60
2018-09-29T15:16:07.511Z,13.28
2018-09-29T15:18:58.568Z,13.60
2018-09-29T15:21:49.066Z,13.40
2018-09-29T15:24:40.508Z,13.72
2018-09-29T15:27:31.497Z,12.58
2018-09-29T15:30:23.673Z,13.32
2018-09-29T15:33:14.327Z,13.18
2018-09-29T15:36:05.437Z,13.40
2018-09-29T15:38:56.148Z,13.28
2018-09-29T15:41:47.137Z,13.78
2018-09-29T15:44:37.992Z,13.88
2018-09-29T15:47:29.199Z,13.53
2018-09-29T15:50:20.928Z,13.28
2018-09-29T15:53:12.781Z,13.75
2018-09-29T15:56:03.810Z,13.22
2018-09-29T15:58:54.689Z,13.78
2018-09-29T16:01:45.577Z,14.30
2018-09-29T16:04:36.958Z,14.43
2018-09-29T16:07:28.115Z,14.15
2018-09-29T16:10:19.610Z,13.78
2018-09-29T16:13:10.356Z,14.00
2018-09-29T16:16:01.475Z,13.65
2018-09-29T16:18:52.180Z,13.98
2018-09-29T16:21:43.411Z,14.00
2018-09-29T16:24:34.163Z,14.25
2018-09-29T16:27:25.307Z,14.30
2018-09-29T16:30:16.023Z,14.35
2018-09-29T16:33:07.447Z,14.43
2018-09-29T16:35:58.276Z,14.00
2018-09-29T16:38:49.005Z,14.80
2018-09-29T16:41:39.659Z,14.53
2018-09-29T16:44:30.968Z,14.63
2018-09-29T16:47:21.595Z,14.50
2018-09-29T16:50:12.796Z,14.87
2018-09-29T16:53:03.488Z,14.90
2018-09-29T16:55:54.585Z,15.08
2018-09-29T16:58:46.755Z,14.63
2018-09-29T17:01:37.931Z,14.68
2018-09-29T17:04:31.240Z,14.63
2018-09-29T17:07:23.489Z,14.65
2018-09-29T17:10:15.202Z,14.45
2018-09-29T17:13:06.805Z,15.10
2018-09-29T17:15:57.771Z,15.15
2018-09-29T17:18:49.616Z,15.88
2018-09-29T17:21:40.689Z,15.65
2018-09-29T17:24:32.017Z,15.55
2018-09-29T17:27:22.924Z,15.45
2018-09-29T17:30:14.274Z,16.32
2018-09-29T17:33:05.339Z,15.93
2018-09-29T17:35:59.034Z,16.32
2018-09-29T17:38:50.750Z,16.17
2018-09-29T17:41:44.307Z,15.60
2018-09-29T17:44:35.800Z,15.93
2018-09-29T17:47:26.943Z,16.07
2018-09-29T17:50:17.667Z,16.95
2018-09-29T17:53:08.733Z,16.32
2018-09-29T17:56:01.730Z,16.57
2018-09-29T17:58:53.624Z,15.95
2018-09-29T18:01:44.630Z,16.93
2018-09-29T18:04:36.235Z,16.73
2018-09-29T18:07:28.576Z,16.80
2018-09-29T18:10:24.036Z,16.23
2018-09-29T18:13:15.236Z,16.42
2018-09-29T18:16:06.158Z,16.55
2018-09-29T18:18:56.551Z,17.02
2018-09-29T18:21:47.497Z,16.80
2018-09-29T18:24:39.106Z,16.55
2018-09-29T18:27:30.920Z,17.52
2018-09-29T18:30:22.108Z,16.52
2018-09-29T18:33:13.702Z,16.87
2018-09-29T18:36:05.369Z,16.55
2018-09-29T18:38:57.450Z,16.73
2018-09-29T18:41:48.326Z,17.10
2018-09-29T18:44:39.356Z,16.75
2018-09-29T18:47:32.563Z,16.93
2018-09-29T18:50:24.071Z,16.97
2018-09-29T18:53:15.428Z,16.82
2018-09-29T18:56:06.452Z,17.80
2018-09-29T18:58:58.518Z,17.00
2018-09-29T19:01:49.352Z,16.87
2018-09-29T19:04:40.688Z,16.32
2018-09-29T19:07:31.565Z,16.85
2018-09-29T19:10:23.987Z,16.90
2018-09-29T19:13:15.028Z,18.57
2018-09-29T19:16:05.575Z,17.40
2018-09-29T19:18:56.705Z,17.37
2018-09-29T19:21:47.388Z,17.95
2018-09-29T19:24:39.865Z,19.07
2018-09-29T19:27:32.184Z,18.25
2018-09-29T19:30:23.259Z,20.10
2018-09-29T19:33:15.436Z,17.80
2018-09-29T19:36:07.022Z,19.25
2018-09-29T19:38:59.845Z,19.00
2018-09-29T19:41:52.214Z,17.80
2018-09-29T19:44:44.644Z,19.12
2018-09-29T19:47:36.104Z,18.05
2018-09-29T19:50:26.961Z,18.70
2018-09-29T19:53:18.178Z,17.70
2018-09-29T19:56:09.525Z,18.57
2018-09-29T19:59:00.838Z,19.10
2018-09-29T20:01:52.285Z,18.98
2018-09-29T20:04:44.817Z,19.15
2018-09-29T20:07:36.994Z,19.55
2018-09-29T20:10:31.721Z,19.77
2018-09-29T20:13:23.031Z,18.95
2018-09-29T20:16:19.481Z,19.42
2018-09-29T20:19:10.742Z,19.27
2018-09-29T20:22:02.030Z,18.85
2018-09-29T20:24:53.177Z,19.42
2018-09-29T20:27:43.993Z,19.70
2018-09-29T20:30:34.837Z,21.30
2018-09-29T20:33:25.411Z,20.55
2018-09-29T20:36:16.421Z,20.30
2018-09-29T20:39:09.861Z,20.85
2018-09-29T20:42:01.092Z,20.20
2018-09-29T20:44:52.641Z,20.45
2018-09-29T20:51:05.443Z,20.52
2018-09-29T20:53:57.168Z,21.12
2018-09-29T20:56:48.801Z,21.00
2018-09-29T20:59:39.362Z,21.05
2018-09-29T21:02:30.693Z,21.15
2018-09-29T21:05:21.293Z,21.60
2018-09-29T21:08:12.430Z,22.15
2018-09-29T21:11:04.397Z,21.70
2018-09-29T21:13:56.842Z,22.07
2018-09-29T21:16:48.289Z,23.75
2018-09-29T21:19:39.652Z,24.40
2018-09-29T21:22:30.256Z,26.07
2018-09-29T21:25:20.969Z,25.70
2018-09-29T21:28:11.836Z,29.77
2018-09-29T21:31:02.930Z,27.07
2018-09-29T21:36:47.488Z,27.32
2018-09-29T21:39:38.326Z,27.58
2018-09-29T21:42:29.647Z,28.32
2018-09-29T21:45:20.876Z,26.57
2018-09-29T21:48:12.781Z,27.40
2018-09-29T21:51:04.689Z,28.38
2018-09-29T21:53:55.413Z,28.32
2018-09-29T21:56:46.240Z,28.57
2018-09-29T21:59:38.594Z,29.87
2018-09-29T22:02:30.173Z,29.77
2018-09-29T22:05:22.244Z,29.02
2018-09-29T22:08:12.985Z,29.63
2018-09-29T22:11:04.324Z,30.02
2018-09-29T22:13:56.143Z,30.08
2018-09-29T22:16:47.259Z,31.33
2018-09-29T22:19:38.591Z,29.63
2018-09-29T22:22:29.548Z,30.85
2018-09-29T22:25:20.242Z,32.00
2018-09-29T22:28:11.234Z,31.82
2018-09-29T22:31:02.363Z,32.98
2018-09-29T22:33:53.092Z,33.15
2018-09-29T22:36:44.183Z,33.65
2018-09-29T22:39:35.480Z,34.90
2018-09-29T22:42:27.015Z,34.85
2018-09-29T22:45:17.465Z,34.73
2018-09-29T22:48:08.347Z,34.05
2018-09-29T22:51:00.299Z,35.17
2018-09-29T22:53:53.740Z,35.92
2018-09-29T22:56:45.312Z,35.92
2018-09-29T22:59:35.845Z,35.50
2018-09-29T23:02:27.124Z,37.17
2018-09-29T23:05:19.697Z,36.95
2018-09-29T23:08:10.111Z,37.93
2018-09-29T23:11:04.294Z,38.92
2018-09-29T23:13:57.294Z,38.53
2018-09-29T23:16:48.163Z,39.95
2018-09-29T23:19:39.292Z,38.85
2018-09-29T23:22:31.362Z,39.42
2018-09-29T23:25:22.178Z,39.65
2018-09-29T23:28:12.729Z,39.15
2018-09-29T23:31:04.530Z,38.98
2018-09-29T23:33:55.230Z,39.45
2018-09-29T23:36:47.192Z,40.10
2018-09-29T23:39:39.214Z,38.53
2018-09-29T23:42:32.230Z,38.85
2018-09-29T23:45:23.000Z,38.98
2018-09-29T23:48:14.177Z,38.80
2018-09-29T23:51:05.925Z,40.38
2018-09-29T23:53:57.764Z,39.55
2018-09-29T23:56:48.887Z,39.35
2018-09-29T23:59:39.831Z,38.67
